createdAt,value
2018-01-28T00:00:36.736Z,11.1
2018-01-28T00:01:39.518Z,11.2
2018-01-28T00:02:42.005Z,11.2
2018-01-28T00:03:45.075Z,11.2
2018-01-28T00:04:47.584Z,11.2
2018-01-28T00:05:50.070Z,11.2
2018-01-28T00:06:52.566Z,11.2
2018-01-28T00:07:55.067Z,11.1
2018-01-28T00:08:57.557Z,11.1
2018-01-28T00:10:00.054Z,11.1
2018-01-28T00:11:02.549Z,11.1
2018-01-28T00:12:05.043Z,11.1
2018-01-28T00:13:07.545Z,11.1
2018-01-28T00:14:10.036Z,11.1
2018-01-28T00:15:12.520Z,11.1
2018-01-28T00:16:15.023Z,11.1
2018-01-28T00:17:17.522Z,11.1
2018-01-28T00:18:20.018Z,11.1
2018-01-28T00:19:22.510Z,11.1
2018-01-28T00:20:24.998Z,11.1
2018-01-28T00:21:27.489Z,11.1
2018-01-28T00:22:30.288Z,11.1
2018-01-28T00:23:33.081Z,11.1
2018-01-28T00:24:35.572Z,11.1
2018-01-28T00:25:38.058Z,11.1
2018-01-28T00:26:40.564Z,11
2018-01-28T00:27:43.064Z,11
2018-01-28T00:28:45.544Z,11
2018-01-28T00:29:48.339Z,11
2018-01-28T00:30:50.841Z,11
2018-01-28T00:31:53.333Z,11
2018-01-28T00:32:55.841Z,11
2018-01-28T00:33:58.331Z,11
2018-01-28T00:35:00.824Z,11
2018-01-28T00:36:03.635Z,11
2018-01-28T00:37:06.126Z,11
2018-01-28T00:38:08.928Z,11
2018-01-28T00:39:11.428Z,11
2018-01-28T00:40:13.908Z,11
2018-01-28T00:41:16.694Z,11
2018-01-28T00:42:19.191Z,11
2018-01-28T00:43:21.685Z,11
2018-01-28T00:44:24.185Z,11
2018-01-28T00:45:26.673Z,11
2018-01-28T00:46:29.158Z,10.9
2018-01-28T00:47:31.670Z,10.9
2018-01-28T00:48:34.160Z,10.9
2018-01-28T00:49:36.647Z,10.9
2018-01-28T00:50:39.135Z,10.9
2018-01-28T00:51:41.636Z,10.9
2018-01-28T00:52:44.111Z,10.9
2018-01-28T00:53:47.196Z,10.9
2018-01-28T00:54:49.693Z,10.9
2018-01-28T00:55:52.471Z,10.9
2018-01-28T00:56:54.963Z,10.9
2018-01-28T00:57:57.460Z,10.9
2018-01-28T00:58:59.941Z,10.8
2018-01-28T01:00:02.729Z,10.9
2018-01-28T01:01:05.215Z,10.8
2018-01-28T01:02:07.713Z,10.8
2018-01-28T01:03:10.200Z,10.8
2018-01-28T01:04:12.700Z,10.8
2018-01-28T01:05:15.197Z,10.7
2018-01-28T01:06:17.682Z,10.7
2018-01-28T01:07:20.184Z,10.7
2018-01-28T01:08:22.674Z,10.7
2018-01-28T01:09:25.166Z,10.6
2018-01-28T01:10:27.677Z,10.6
2018-01-28T01:11:30.155Z,10.6
2018-01-28T01:12:32.652Z,10.6
2018-01-28T01:13:35.442Z,10.5
2018-01-28T01:14:37.925Z,10.5
2018-01-28T01:15:40.409Z,10.5
2018-01-28T01:16:42.902Z,10.5
2018-01-28T01:17:45.393Z,10.4
2018-01-28T01:18:47.897Z,10.4
2018-01-28T01:19:50.392Z,10.4
2018-01-28T01:20:52.866Z,10.4
2018-01-28T01:21:55.366Z,10.4
2018-01-28T01:22:57.861Z,10.4
2018-01-28T01:24:00.360Z,10.3
2018-01-28T01:25:02.858Z,10.4
2018-01-28T01:26:05.349Z,10.3
2018-01-28T01:27:07.852Z,10.3
2018-01-28T01:28:10.341Z,10.3
2018-01-28T01:29:12.835Z,10.4
2018-01-28T01:30:15.330Z,10.4
2018-01-28T01:31:17.820Z,10.4
2018-01-28T01:32:20.314Z,10.3
2018-01-28T01:33:22.809Z,10.4
2018-01-28T01:34:25.296Z,10.3
2018-01-28T01:35:27.788Z,10.3
2018-01-28T01:36:30.580Z,10.3
2018-01-28T01:37:33.054Z,10.3
2018-01-28T01:38:35.836Z,10.4
2018-01-28T01:39:38.630Z,10.4
2018-01-28T01:40:41.125Z,10.4
2018-01-28T01:41:43.619Z,10.4
2018-01-28T01:42:46.113Z,10.3
2018-01-28T01:43:48.884Z,10.3
2018-01-28T01:44:51.392Z,10.3
2018-01-28T01:45:53.886Z,10.3
2018-01-28T01:46:56.365Z,10.3
2018-01-28T01:47:58.859Z,10.3
2018-01-28T01:49:01.645Z,10.3
2018-01-28T01:50:04.134Z,10.3
2018-01-28T01:51:06.622Z,10.3
2018-01-28T01:52:09.126Z,10.3
2018-01-28T01:53:11.620Z,10.3
2018-01-28T01:54:14.105Z,10.3
2018-01-28T01:55:16.600Z,10.3
2018-01-28T01:56:19.098Z,10.3
2018-01-28T01:57:21.890Z,10.3
2018-01-28T01:58:24.393Z,10.3
2018-01-28T01:59:26.870Z,10.3
2018-01-28T02:00:29.367Z,10.4
2018-01-28T02:01:31.871Z,10.3
2018-01-28T02:02:34.368Z,10.3
2018-01-28T02:03:36.857Z,10.3
2018-01-28T02:04:39.347Z,10.3
2018-01-28T02:05:41.838Z,10.3
2018-01-28T02:06:44.331Z,10.3
2018-01-28T02:07:47.117Z,10.3
2018-01-28T02:08:49.602Z,10.3
2018-01-28T02:09:52.101Z,10.3
2018-01-28T02:10:54.599Z,10.4
2018-01-28T02:11:57.387Z,10.3
2018-01-28T02:12:59.866Z,10.3
2018-01-28T02:14:02.356Z,10.4
2018-01-28T02:15:05.135Z,10.3
2018-01-28T02:16:07.629Z,10.3
2018-01-28T02:17:10.116Z,10.3
2018-01-28T02:18:12.619Z,10.4
2018-01-28T02:19:15.103Z,10.4
2018-01-28T02:20:18.194Z,10.4
2018-01-28T02:21:20.693Z,10.4
2018-01-28T02:22:23.184Z,10.4
2018-01-28T02:23:25.676Z,10.4
2018-01-28T02:24:28.182Z,10.4
2018-01-28T02:25:30.660Z,10.4
2018-01-28T02:26:33.444Z,10.4
2018-01-28T02:27:35.945Z,10.4
2018-01-28T02:28:38.430Z,10.4
2018-01-28T02:29:40.913Z,10.4
2018-01-28T02:30:43.703Z,10.4
2018-01-28T02:31:46.186Z,10.4
2018-01-28T02:32:49.003Z,10.4
2018-01-28T02:33:51.501Z,10.4
2018-01-28T02:34:53.982Z,10.5
2018-01-28T02:35:56.490Z,10.4
2018-01-28T02:36:58.969Z,10.4
2018-01-28T02:38:01.765Z,10.4
2018-01-28T02:39:04.256Z,10.4
2018-01-28T02:40:06.755Z,10.5
2018-01-28T02:41:09.245Z,10.4
2018-01-28T02:42:11.746Z,10.4
2018-01-28T02:43:14.226Z,10.5
2018-01-28T02:44:16.730Z,10.5
2018-01-28T02:45:19.217Z,10.5
2018-01-28T02:46:21.706Z,10.5
2018-01-28T02:47:24.204Z,10.5
2018-01-28T02:48:26.698Z,10.5
2018-01-28T02:49:29.185Z,10.6
2018-01-28T02:50:31.694Z,10.6
2018-01-28T02:51:34.176Z,10.6
2018-01-28T02:52:36.674Z,10.6
2018-01-28T02:53:39.166Z,10.6
2018-01-28T02:54:41.656Z,10.6
2018-01-28T02:55:44.154Z,10.7
2018-01-28T02:56:46.637Z,10.7
2018-01-28T02:57:49.139Z,10.7
2018-01-28T02:58:51.631Z,10.7
2018-01-28T02:59:54.121Z,10.7
2018-01-28T03:00:56.907Z,10.7
2018-01-28T03:01:59.685Z,10.7
2018-01-28T03:03:02.185Z,10.7
2018-01-28T03:04:04.686Z,10.7
2018-01-28T03:05:07.172Z,10.7
2018-01-28T03:06:09.667Z,10.7
2018-01-28T03:07:12.160Z,10.7
2018-01-28T03:08:14.634Z,10.7
2018-01-28T03:09:17.127Z,10.7
2018-01-28T03:10:19.638Z,10.7
2018-01-28T03:11:22.177Z,10.7
2018-01-28T03:12:24.623Z,10.7
2018-01-28T03:13:27.114Z,10.7
2018-01-28T03:14:29.901Z,10.7
2018-01-28T03:15:32.407Z,10.8
2018-01-28T03:16:34.901Z,10.8
2018-01-28T03:17:37.384Z,10.7
2018-01-28T03:18:39.878Z,10.7
2018-01-28T03:19:42.379Z,10.8
2018-01-28T03:20:44.861Z,10.8
2018-01-28T03:21:47.353Z,10.8
2018-01-28T03:22:50.134Z,10.8
2018-01-28T03:23:52.920Z,10.8
2018-01-28T03:24:55.689Z,10.8
2018-01-28T03:25:58.185Z,10.8
2018-01-28T03:27:00.698Z,10.8
2018-01-28T03:28:03.200Z,10.8
2018-01-28T03:29:05.693Z,10.9
2018-01-28T03:30:08.194Z,10.9
2018-01-28T03:31:10.682Z,10.9
2018-01-28T03:32:13.810Z,10.9
2018-01-28T03:33:16.306Z,10.9
2018-01-28T03:34:18.778Z,10.9
2018-01-28T03:35:21.278Z,10.9
2018-01-28T03:36:24.062Z,10.9
2018-01-28T03:37:26.552Z,11
2018-01-28T03:38:29.053Z,11
2018-01-28T03:39:31.528Z,11
2018-01-28T03:40:34.310Z,11
2018-01-28T03:41:37.104Z,11
2018-01-28T03:42:39.594Z,11
2018-01-28T03:43:42.089Z,11
2018-01-28T03:44:44.581Z,11
2018-01-28T03:45:47.075Z,11
2018-01-28T03:46:49.868Z,11
2018-01-28T03:47:52.651Z,11
2018-01-28T03:48:55.132Z,11.1
2018-01-28T03:49:57.636Z,11
2018-01-28T03:51:00.126Z,11.1
2018-01-28T03:52:02.628Z,11
2018-01-28T03:53:05.114Z,11.1
2018-01-28T03:54:07.615Z,11.1
2018-01-28T03:55:10.108Z,11
2018-01-28T03:56:12.596Z,11
2018-01-28T03:57:15.401Z,11
2018-01-28T03:58:17.892Z,11
2018-01-28T03:59:20.377Z,11
2018-01-28T04:00:22.887Z,11.1
2018-01-28T04:01:25.379Z,11.1
2018-01-28T04:02:27.874Z,11.1
2018-01-28T04:03:30.364Z,11.1
2018-01-28T04:04:33.142Z,11.1
2018-01-28T04:05:35.936Z,11.1
2018-01-28T04:06:38.439Z,11.1
2018-01-28T04:07:40.930Z,11.1
2018-01-28T04:08:43.425Z,11.1
2018-01-28T04:09:45.913Z,11.1
2018-01-28T04:10:48.407Z,11.1
2018-01-28T04:11:50.907Z,11.1
2018-01-28T04:12:53.402Z,11.2
2018-01-28T04:13:55.890Z,11.1
2018-01-28T04:14:58.388Z,11.2
2018-01-28T04:16:00.880Z,11.2
2018-01-28T04:17:03.375Z,11.2
2018-01-28T04:18:05.868Z,11.2
2018-01-28T04:19:08.369Z,11.2
2018-01-28T04:20:11.438Z,11.2
2018-01-28T04:21:13.930Z,11.2
2018-01-28T04:22:16.434Z,11.3
2018-01-28T04:23:18.928Z,11.3
2018-01-28T04:24:21.413Z,11.3
2018-01-28T04:25:23.907Z,11.3
2018-01-28T04:26:26.409Z,11.3
2018-01-28T04:27:28.895Z,11.3
2018-01-28T04:28:31.389Z,11.3
2018-01-28T04:29:34.166Z,11.3
2018-01-28T04:30:36.658Z,11.4
2018-01-28T04:31:39.174Z,11.3
2018-01-28T04:32:41.946Z,11.4
2018-01-28T04:33:44.439Z,11.4
2018-01-28T04:34:47.213Z,11.4
2018-01-28T04:35:49.701Z,11.4
2018-01-28T04:36:52.783Z,11.4
2018-01-28T04:37:55.277Z,11.4
2018-01-28T04:38:57.756Z,11.4
2018-01-28T04:40:00.555Z,11.5
2018-01-28T04:41:03.341Z,11.5
2018-01-28T04:42:06.125Z,11.5
2018-01-28T04:43:08.915Z,11.5
2018-01-28T04:44:11.406Z,11.5
2018-01-28T04:45:13.898Z,11.5
2018-01-28T04:46:16.408Z,11.5
2018-01-28T04:47:18.888Z,11.5
2018-01-28T04:48:21.382Z,11.6
2018-01-28T04:49:23.867Z,11.6
2018-01-28T04:50:26.374Z,11.6
2018-01-28T04:51:28.867Z,11.5
2018-01-28T04:52:31.362Z,11.5
2018-01-28T04:53:33.857Z,11.5
2018-01-28T04:54:36.350Z,11.5
2018-01-28T04:55:38.835Z,11.5
2018-01-28T04:56:41.342Z,11.6
2018-01-28T04:57:43.818Z,11.6
2018-01-28T04:58:46.312Z,11.6
2018-01-28T04:59:48.817Z,11.6
2018-01-28T05:00:51.315Z,11.6
2018-01-28T05:01:53.812Z,11.6
2018-01-28T05:02:56.307Z,11.7
2018-01-28T05:03:58.792Z,11.7
2018-01-28T05:05:01.300Z,11.6
2018-01-28T05:06:03.839Z,11.6
2018-01-28T05:07:06.283Z,11.6
2018-01-28T05:08:08.776Z,11.6
2018-01-28T05:09:11.271Z,11.6
2018-01-28T05:10:13.762Z,11.6
2018-01-28T05:11:16.269Z,11.7
2018-01-28T05:12:19.036Z,11.7
2018-01-28T05:13:21.540Z,11.7
2018-01-28T05:14:24.046Z,11.7
2018-01-28T05:15:26.541Z,11.8
2018-01-28T05:16:29.027Z,11.8
2018-01-28T05:17:31.526Z,11.8
2018-01-28T05:18:34.011Z,11.8
2018-01-28T05:19:36.508Z,11.8
2018-01-28T05:20:39.009Z,11.8
2018-01-28T05:21:41.495Z,11.8
2018-01-28T05:22:43.989Z,11.9
2018-01-28T05:23:46.499Z,11.9
2018-01-28T05:24:48.991Z,11.9
2018-01-28T05:25:51.486Z,11.9
2018-01-28T05:26:54.028Z,11.9
2018-01-28T05:27:56.473Z,11.9
2018-01-28T05:28:58.972Z,11.9
2018-01-28T05:30:01.468Z,12
2018-01-28T05:31:04.242Z,12
2018-01-28T05:32:06.735Z,12
2018-01-28T05:33:09.527Z,12
2018-01-28T05:34:12.029Z,12
2018-01-28T05:35:14.531Z,12
2018-01-28T05:36:17.016Z,12.1
2018-01-28T05:37:19.513Z,12
2018-01-28T05:38:22.022Z,12.1
2018-01-28T05:39:24.518Z,12.1
2018-01-28T05:40:27.013Z,12.1
2018-01-28T05:41:29.796Z,12.1
2018-01-28T05:42:32.286Z,12.1
2018-01-28T05:43:34.796Z,12.1
2018-01-28T05:44:37.295Z,12.1
2018-01-28T05:45:39.777Z,12.1
2018-01-28T05:46:42.275Z,12.2
2018-01-28T05:47:44.778Z,12.2
2018-01-28T05:48:47.277Z,12.2
2018-01-28T05:49:49.761Z,12.2
2018-01-28T05:50:52.545Z,12.2
2018-01-28T05:51:55.046Z,12.2
2018-01-28T05:52:57.531Z,12.2
2018-01-28T05:54:00.310Z,12.2
2018-01-28T05:55:02.819Z,12.2
2018-01-28T05:56:05.304Z,12.2
2018-01-28T05:57:08.097Z,12.2
2018-01-28T05:58:10.591Z,12.2
2018-01-28T05:59:13.086Z,12.2
2018-01-28T06:00:15.585Z,12.2
2018-01-28T06:01:18.079Z,12.2
2018-01-28T06:02:20.563Z,12.2
2018-01-28T06:03:23.073Z,12.2
2018-01-28T06:04:25.839Z,12.2
2018-01-28T06:05:28.332Z,12.2
2018-01-28T06:06:30.835Z,12.2
2018-01-28T06:07:33.327Z,12.2
2018-01-28T06:08:35.827Z,12.2
2018-01-28T06:09:38.615Z,12.2
2018-01-28T06:10:41.378Z,12.2
2018-01-28T06:11:43.900Z,12.2
2018-01-28T06:12:46.393Z,12.2
2018-01-28T06:13:48.888Z,12.2
2018-01-28T06:14:51.386Z,12.2
2018-01-28T06:15:53.882Z,12.3
2018-01-28T06:16:56.364Z,12.3
2018-01-28T06:17:58.864Z,12.3
2018-01-28T06:19:01.371Z,12.3
2018-01-28T06:20:03.868Z,12.3
2018-01-28T06:21:06.628Z,12.3
2018-01-28T06:22:09.136Z,12.3
2018-01-28T06:23:11.628Z,12.2
2018-01-28T06:24:14.135Z,12.2
2018-01-28T06:25:16.631Z,12.2
2018-01-28T06:26:19.119Z,12.2
2018-01-28T06:27:21.614Z,12.3
2018-01-28T06:28:24.410Z,12.3
2018-01-28T06:29:26.897Z,12.3
2018-01-28T06:30:29.704Z,12.3
2018-01-28T06:31:32.479Z,12.3
2018-01-28T06:32:34.972Z,12.3
2018-01-28T06:33:37.479Z,12.3
2018-01-28T06:34:40.268Z,12.3
2018-01-28T06:35:43.043Z,12.3
2018-01-28T06:36:45.547Z,12.3
2018-01-28T06:37:48.036Z,12.3
2018-01-28T06:38:50.528Z,12.3
2018-01-28T06:39:53.020Z,12.3
2018-01-28T06:40:55.512Z,12.3
2018-01-28T06:41:58.005Z,12.3
2018-01-28T06:43:00.519Z,12.3
2018-01-28T06:44:03.006Z,12.3
2018-01-28T06:45:05.787Z,12.3
2018-01-28T06:46:08.574Z,12.3
2018-01-28T06:47:11.070Z,12.3
2018-01-28T06:48:13.570Z,12.3
2018-01-28T06:49:16.072Z,12.3
2018-01-28T06:50:18.560Z,12.4
2018-01-28T06:51:21.056Z,12.4
2018-01-28T06:52:23.545Z,12.4
2018-01-28T06:53:26.051Z,12.4
2018-01-28T06:54:28.554Z,12.5
2018-01-28T06:55:31.329Z,12.5
2018-01-28T06:56:33.836Z,12.5
2018-01-28T06:57:36.329Z,12.5
2018-01-28T06:58:38.830Z,12.5
2018-01-28T06:59:41.327Z,12.5
2018-01-28T07:00:43.818Z,12.5
2018-01-28T07:01:46.321Z,12.5
2018-01-28T07:02:48.812Z,12.5
2018-01-28T07:03:51.308Z,12.5
2018-01-28T07:04:53.804Z,12.5
2018-01-28T07:05:56.303Z,12.5
2018-01-28T07:06:58.780Z,12.6
2018-01-28T07:08:01.287Z,12.6
2018-01-28T07:09:03.783Z,12.5
2018-01-28T07:10:06.269Z,12.6
2018-01-28T07:11:08.771Z,12.5
2018-01-28T07:12:11.550Z,12.5
2018-01-28T07:13:14.050Z,12.5
2018-01-28T07:14:16.598Z,12.5
2018-01-28T07:15:19.168Z,12.5
2018-01-28T07:16:21.661Z,12.5
2018-01-28T07:17:24.148Z,12.6
2018-01-28T07:18:26.659Z,12.6
2018-01-28T07:19:29.152Z,12.6
2018-01-28T07:20:31.654Z,12.6
2018-01-28T07:21:34.149Z,12.6
2018-01-28T07:22:36.649Z,12.7
2018-01-28T07:23:39.149Z,12.7
2018-01-28T07:24:41.968Z,12.7
2018-01-28T07:25:44.452Z,12.7
2018-01-28T07:26:46.947Z,12.7
2018-01-28T07:27:49.449Z,12.7
2018-01-28T07:28:51.951Z,12.7
2018-01-28T07:29:54.431Z,12.7
2018-01-28T07:30:56.936Z,12.7
2018-01-28T07:31:59.708Z,12.7
2018-01-28T07:33:02.208Z,12.8
2018-01-28T07:34:04.711Z,12.8
2018-01-28T07:35:07.510Z,12.7
2018-01-28T07:36:09.988Z,12.8
2018-01-28T07:37:12.499Z,12.7
2018-01-28T07:38:14.998Z,12.7
2018-01-28T07:39:17.492Z,12.8
2018-01-28T07:40:19.988Z,12.7
2018-01-28T07:41:22.481Z,12.8
2018-01-28T07:42:24.994Z,12.7
2018-01-28T07:43:27.489Z,12.7
2018-01-28T07:44:30.253Z,12.7
2018-01-28T07:45:33.048Z,12.7
2018-01-28T07:46:35.542Z,12.7
2018-01-28T07:47:38.317Z,12.7
2018-01-28T07:48:40.812Z,12.7
2018-01-28T07:49:43.979Z,12.7
2018-01-28T07:50:46.469Z,12.7
2018-01-28T07:51:48.960Z,12.7
2018-01-28T07:52:51.457Z,12.7
2018-01-28T07:53:53.954Z,12.7
2018-01-28T07:54:56.449Z,12.7
2018-01-28T07:55:58.944Z,12.7
2018-01-28T07:57:01.428Z,12.7
2018-01-28T07:58:03.931Z,12.7
2018-01-28T07:59:06.423Z,12.8
2018-01-28T08:00:09.219Z,12.8
2018-01-28T08:01:11.707Z,12.8
2018-01-28T08:02:14.212Z,12.8
2018-01-28T08:03:16.987Z,12.9
2018-01-28T08:04:19.487Z,12.9
2018-01-28T08:05:21.984Z,12.9
2018-01-28T08:06:24.480Z,12.9
2018-01-28T08:07:26.969Z,13
2018-01-28T08:08:29.782Z,13
2018-01-28T08:09:32.264Z,13
2018-01-28T08:10:34.774Z,13.1
2018-01-28T08:11:37.558Z,13
2018-01-28T08:12:40.055Z,13.1
2018-01-28T08:13:42.548Z,13
2018-01-28T08:14:45.046Z,13.1
2018-01-28T08:15:47.539Z,13.1
2018-01-28T08:16:50.166Z,13.2
2018-01-28T08:17:52.760Z,13.2
2018-01-28T08:18:55.332Z,13.2
2018-01-28T08:19:58.531Z,13.3
2018-01-28T08:21:01.038Z,13.3
2018-01-28T08:22:03.538Z,13.4
2018-01-28T08:23:06.016Z,13.5
2018-01-28T08:24:08.524Z,13.5
2018-01-28T08:25:11.007Z,13.6
2018-01-28T08:26:13.511Z,13.6
2018-01-28T08:27:16.297Z,13.6
2018-01-28T08:28:18.794Z,13.7
2018-01-28T08:29:21.288Z,13.7
2018-01-28T08:30:23.803Z,13.7
2018-01-28T08:31:26.291Z,13.7
2018-01-28T08:32:29.079Z,13.7
2018-01-28T08:33:31.863Z,13.7
2018-01-28T08:34:34.358Z,13.7
2018-01-28T08:35:36.848Z,13.6
2018-01-28T08:36:39.353Z,13.6
2018-01-28T08:37:41.843Z,13.6
2018-01-28T08:38:44.917Z,13.5
2018-01-28T08:39:47.703Z,13.4
2018-01-28T08:40:50.206Z,13.4
2018-01-28T08:41:52.991Z,13.4
2018-01-28T08:42:55.494Z,13.4
2018-01-28T08:43:57.977Z,13.4
2018-01-28T08:45:00.480Z,13.5
2018-01-28T08:46:02.973Z,13.5
2018-01-28T08:47:05.814Z,13.6
2018-01-28T08:48:08.590Z,13.6
2018-01-28T08:49:11.104Z,13.7
2018-01-28T08:50:13.599Z,13.7
2018-01-28T08:51:16.091Z,13.7
2018-01-28T08:52:18.587Z,13.6
2018-01-28T08:53:21.087Z,13.7
2018-01-28T08:54:23.588Z,13.6
2018-01-28T08:55:26.085Z,13.6
2018-01-28T08:56:28.572Z,13.6
2018-01-28T08:57:31.069Z,13.6
2018-01-28T08:58:33.577Z,13.6
2018-01-28T08:59:36.073Z,13.5
2018-01-28T09:00:38.569Z,13.6
2018-01-28T09:01:41.358Z,13.6
2018-01-28T09:02:43.855Z,13.6
2018-01-28T09:03:46.632Z,13.6
2018-01-28T09:04:49.127Z,13.5
2018-01-28T09:05:51.614Z,13.6
2018-01-28T09:06:54.112Z,13.5
2018-01-28T09:07:56.625Z,13.5
2018-01-28T09:08:59.116Z,13.6
2018-01-28T09:10:01.611Z,13.6
2018-01-28T09:11:04.121Z,13.6
2018-01-28T09:12:06.620Z,13.6
2018-01-28T09:13:09.431Z,13.6
2018-01-28T09:14:11.932Z,13.6
2018-01-28T09:15:14.724Z,13.6
2018-01-28T09:16:17.813Z,13.6
2018-01-28T09:17:20.305Z,13.6
2018-01-28T09:18:22.804Z,13.5
2018-01-28T09:19:25.313Z,13.5
2018-01-28T09:20:27.811Z,13.5
2018-01-28T09:21:30.302Z,13.5
2018-01-28T09:22:33.092Z,13.5
2018-01-28T09:23:35.575Z,13.5
2018-01-28T09:24:38.077Z,13.5
2018-01-28T09:25:40.571Z,13.5
2018-01-28T09:26:43.073Z,13.5
2018-01-28T09:27:45.565Z,13.5
2018-01-28T09:28:48.069Z,13.5
2018-01-28T09:29:50.551Z,13.5
2018-01-28T09:30:53.061Z,13.5
2018-01-28T09:31:56.126Z,13.5
2018-01-28T09:32:58.628Z,13.5
2018-01-28T09:34:01.441Z,13.5
2018-01-28T09:35:03.932Z,13.5
2018-01-28T09:36:06.432Z,13.5
2018-01-28T09:37:09.216Z,13.5
2018-01-28T09:38:11.712Z,13.6
2018-01-28T09:39:14.221Z,13.6
2018-01-28T09:40:16.719Z,13.6
2018-01-28T09:41:19.207Z,13.6
2018-01-28T09:42:21.996Z,13.6
2018-01-28T09:43:24.499Z,13.6
2018-01-28T09:44:26.993Z,13.7
2018-01-28T09:45:29.485Z,13.7
2018-01-28T09:46:32.279Z,13.8
2018-01-28T09:47:35.130Z,13.8
2018-01-28T09:48:37.563Z,13.8
2018-01-28T09:49:40.058Z,13.8
2018-01-28T09:50:43.135Z,13.8
2018-01-28T09:51:45.633Z,13.8
2018-01-28T09:52:48.134Z,13.8
2018-01-28T09:53:50.621Z,13.8
2018-01-28T09:54:53.116Z,13.7
2018-01-28T09:55:55.919Z,13.8
2018-01-28T09:56:58.724Z,13.7
2018-01-28T09:58:01.217Z,13.8
2018-01-28T09:59:03.720Z,13.8
2018-01-28T10:00:06.501Z,13.8
2018-01-28T10:01:09.280Z,13.8
2018-01-28T10:02:11.777Z,13.8
2018-01-28T10:03:14.579Z,13.8
2018-01-28T10:04:17.079Z,13.9
2018-01-28T10:05:19.594Z,13.9
2018-01-28T10:06:22.375Z,14
2018-01-28T10:07:24.878Z,14
2018-01-28T10:08:27.375Z,14.1
2018-01-28T10:09:29.870Z,14.1
2018-01-28T10:10:32.366Z,14.2
2018-01-28T10:11:34.860Z,14.1
2018-01-28T10:12:37.345Z,14.2
2018-01-28T10:13:39.853Z,14.2
2018-01-28T10:14:42.344Z,14.2
2018-01-28T10:15:45.134Z,14.2
2018-01-28T10:16:47.625Z,14.2
2018-01-28T10:17:50.128Z,14.2
2018-01-28T10:18:52.915Z,14.2
2018-01-28T10:19:55.404Z,14.2
2018-01-28T10:20:57.902Z,14.2
2018-01-28T10:22:00.413Z,14.2
2018-01-28T10:23:02.903Z,14.1
2018-01-28T10:24:05.403Z,14.1
2018-01-28T10:25:07.902Z,14.1
2018-01-28T10:26:10.411Z,14
2018-01-28T10:27:12.917Z,14
2018-01-28T10:28:15.418Z,14
2018-01-28T10:29:17.898Z,14
2018-01-28T10:30:20.688Z,14
2018-01-28T10:31:23.181Z,14
2018-01-28T10:32:25.673Z,14
2018-01-28T10:33:28.181Z,14
2018-01-28T10:34:30.681Z,14
2018-01-28T10:35:33.463Z,14
2018-01-28T10:36:35.966Z,14
2018-01-28T10:37:38.801Z,14
2018-01-28T10:38:41.296Z,14
2018-01-28T10:39:43.802Z,13.9
2018-01-28T10:40:46.289Z,13.9
2018-01-28T10:41:48.787Z,13.9
2018-01-28T10:42:51.286Z,13.9
2018-01-28T10:43:54.070Z,13.8
2018-01-28T10:44:56.567Z,13.8
2018-01-28T10:45:59.077Z,13.8
2018-01-28T10:47:02.165Z,13.9
2018-01-28T10:48:04.885Z,13.8
2018-01-28T10:49:08.072Z,13.9
2018-01-28T10:50:10.574Z,13.9
2018-01-28T10:51:13.064Z,13.9
2018-01-28T10:52:15.857Z,13.9
2018-01-28T10:53:18.347Z,13.9
2018-01-28T10:54:21.132Z,14
2018-01-28T10:55:23.631Z,14
2018-01-28T10:56:26.130Z,14
2018-01-28T10:57:28.628Z,14
2018-01-28T10:58:31.129Z,14
2018-01-28T10:59:33.628Z,14
2018-01-28T11:00:36.122Z,14.1
2018-01-28T11:01:38.920Z,14
2018-01-28T11:02:41.413Z,14.1
2018-01-28T11:03:44.190Z,14.1
2018-01-28T11:04:47.010Z,14.1
2018-01-28T11:05:49.503Z,14.2
2018-01-28T11:06:51.994Z,14.2
2018-01-28T11:07:54.489Z,14.2
2018-01-28T11:08:56.981Z,14.2
2018-01-28T11:09:59.762Z,14.3
2018-01-28T11:11:02.270Z,14.3
2018-01-28T11:12:04.754Z,14.3
2018-01-28T11:13:07.253Z,14.3
2018-01-28T11:14:09.765Z,14.3
2018-01-28T11:15:12.263Z,14.3
2018-01-28T11:16:14.758Z,14.4
2018-01-28T11:17:17.258Z,14.4
2018-01-28T11:18:19.763Z,14.4
2018-01-28T11:19:22.249Z,14.4
2018-01-28T11:20:25.034Z,14.4
2018-01-28T11:21:27.544Z,14.5
2018-01-28T11:22:30.039Z,14.5
2018-01-28T11:23:32.532Z,14.6
2018-01-28T11:24:35.323Z,14.6
2018-01-28T11:25:37.813Z,14.6
2018-01-28T11:26:40.317Z,14.7
2018-01-28T11:27:42.810Z,14.8
2018-01-28T11:28:45.581Z,14.8
2018-01-28T11:29:48.386Z,14.8
2018-01-28T11:30:51.178Z,14.8
2018-01-28T11:31:53.678Z,14.9
2018-01-28T11:32:56.179Z,14.9
2018-01-28T11:33:58.665Z,15
2018-01-28T11:35:01.161Z,15
2018-01-28T11:36:03.678Z,15
2018-01-28T11:37:06.169Z,15.1
2018-01-28T11:38:08.708Z,15.1
2018-01-28T11:39:11.508Z,15.2
2018-01-28T11:40:14.001Z,15.2
2018-01-28T11:41:16.505Z,15.3
2018-01-28T11:42:19.006Z,15.4
2018-01-28T11:43:21.493Z,15.5
2018-01-28T11:44:24.282Z,15.6
2018-01-28T11:45:26.793Z,15.7
2018-01-28T11:46:29.286Z,15.7
2018-01-28T11:47:31.789Z,15.8
2018-01-28T11:48:34.291Z,15.8
2018-01-28T11:49:36.798Z,15.8
2018-01-28T11:50:39.297Z,15.8
2018-01-28T11:51:42.148Z,15.8
2018-01-28T11:52:44.931Z,15.7
2018-01-28T11:53:47.438Z,15.7
2018-01-28T11:54:49.944Z,15.7
2018-01-28T11:55:52.448Z,15.7
2018-01-28T11:56:54.940Z,15.7
2018-01-28T11:57:57.748Z,15.7
2018-01-28T11:59:00.230Z,15.8
2018-01-28T12:00:02.742Z,15.8
2018-01-28T12:01:05.235Z,15.8
2018-01-28T12:02:07.733Z,15.9
2018-01-28T12:03:10.517Z,15.9
2018-01-28T12:04:13.020Z,15.9
2018-01-28T12:05:15.568Z,15.9
2018-01-28T12:06:18.028Z,15.8
2018-01-28T12:07:20.810Z,15.8
2018-01-28T12:08:23.319Z,15.8
2018-01-28T12:09:26.104Z,15.7
2018-01-28T12:10:28.908Z,15.7
2018-01-28T12:11:31.685Z,15.6
2018-01-28T12:12:34.184Z,15.6
2018-01-28T12:13:36.733Z,15.5
2018-01-28T12:14:39.182Z,15.4
2018-01-28T12:15:41.985Z,15.3
2018-01-28T12:16:44.489Z,15.3
2018-01-28T12:17:46.988Z,15.2
2018-01-28T12:18:49.492Z,15.2
2018-01-28T12:19:51.989Z,15.2
2018-01-28T12:20:54.505Z,15.2
2018-01-28T12:21:56.990Z,15.1
2018-01-28T12:22:59.488Z,15.2
2018-01-28T12:24:01.991Z,15.2
2018-01-28T12:25:04.488Z,15.2
2018-01-28T12:26:06.986Z,15.2
2018-01-28T12:27:09.493Z,15.2
2018-01-28T12:28:11.966Z,15.2
2018-01-28T12:29:14.476Z,15.1
2018-01-28T12:30:16.985Z,15.1
2018-01-28T12:31:19.489Z,15.1
2018-01-28T12:32:21.980Z,15.1
2018-01-28T12:33:24.484Z,15.1
2018-01-28T12:34:26.974Z,15.1
2018-01-28T12:35:29.489Z,15.1
2018-01-28T12:36:31.978Z,15.1
2018-01-28T12:37:34.481Z,15.1
2018-01-28T12:38:36.980Z,15.1
2018-01-28T12:39:39.478Z,15.1
2018-01-28T12:40:41.981Z,15
2018-01-28T12:41:44.485Z,15
2018-01-28T12:42:46.971Z,15
2018-01-28T12:43:49.476Z,14.9
2018-01-28T12:44:51.986Z,15
2018-01-28T12:45:54.486Z,14.9
2018-01-28T12:46:56.979Z,14.9
2018-01-28T12:47:59.481Z,14.9
2018-01-28T12:49:02.270Z,14.8
2018-01-28T12:50:04.772Z,14.8
2018-01-28T12:51:07.577Z,14.8
2018-01-28T12:52:10.071Z,14.8
2018-01-28T12:53:12.858Z,14.8
2018-01-28T12:54:15.370Z,14.8
2018-01-28T12:55:18.160Z,14.7
2018-01-28T12:56:20.654Z,14.8
2018-01-28T12:57:23.151Z,14.8
2018-01-28T12:58:25.930Z,14.8
2018-01-28T12:59:28.739Z,14.8
2018-01-28T13:00:31.235Z,14.8
2018-01-28T13:01:33.726Z,14.8
2018-01-28T13:02:36.220Z,14.8
2018-01-28T13:03:38.713Z,14.8
2018-01-28T13:04:41.216Z,14.8
2018-01-28T13:05:43.720Z,14.8
2018-01-28T13:06:46.210Z,14.8
2018-01-28T13:07:48.708Z,14.8
2018-01-28T13:08:51.511Z,14.7
2018-01-28T13:09:54.308Z,14.7
2018-01-28T13:10:56.812Z,14.7
2018-01-28T13:11:59.599Z,14.7
2018-01-28T13:13:02.398Z,14.7
2018-01-28T13:14:04.887Z,14.7
2018-01-28T13:15:07.705Z,14.7
2018-01-28T13:16:10.497Z,14.7
2018-01-28T13:17:13.275Z,14.6
2018-01-28T13:18:15.811Z,14.6
2018-01-28T13:19:18.597Z,14.6
2018-01-28T13:20:21.092Z,14.6
2018-01-28T13:21:23.594Z,14.6
2018-01-28T13:22:26.090Z,14.6
2018-01-28T13:23:28.586Z,14.6
2018-01-28T13:24:31.090Z,14.6
2018-01-28T13:25:33.578Z,14.6
2018-01-28T13:26:36.082Z,14.6
2018-01-28T13:27:38.593Z,14.6
2018-01-28T13:28:41.084Z,14.6
2018-01-28T13:29:43.583Z,14.6
2018-01-28T13:30:46.081Z,14.6
2018-01-28T13:31:48.575Z,14.5
2018-01-28T13:32:51.087Z,14.5
2018-01-28T13:33:53.587Z,14.5
2018-01-28T13:34:56.364Z,14.5
2018-01-28T13:35:59.152Z,14.5
2018-01-28T13:37:01.656Z,14.5
2018-01-28T13:38:04.154Z,14.5
2018-01-28T13:39:06.660Z,14.5
2018-01-28T13:40:09.145Z,14.5
2018-01-28T13:41:11.643Z,14.5
2018-01-28T13:42:14.153Z,14.5
2018-01-28T13:43:16.657Z,14.5
2018-01-28T13:44:19.160Z,14.5
2018-01-28T13:45:21.952Z,14.5
2018-01-28T13:46:24.455Z,14.5
2018-01-28T13:47:26.952Z,14.5
2018-01-28T13:48:29.448Z,14.5
2018-01-28T13:49:31.958Z,14.5
2018-01-28T13:50:34.454Z,14.5
2018-01-28T13:51:36.951Z,14.5
2018-01-28T13:52:39.755Z,14.5
2018-01-28T13:53:42.246Z,14.5
2018-01-28T13:54:44.748Z,14.5
2018-01-28T13:55:47.829Z,14.5
2018-01-28T13:56:50.325Z,14.5
2018-01-28T13:57:52.833Z,14.5